Terminal Aerodrome Forecast
Issued by NWS Cleveland, OH

Home | Current Version | Previous Version | Graphics & Text | Print | Product List | Glossary On
Versions: 1 2 3 4 5 6 7 8 9 10 11 12 13 14 15 16 17 18 19 20 21 22 23 24 25 26 27 28 29 30 31 32 33 34 35 36 37 38 39 40 41 42 43
000
FTUS41 KCLE 061000 AAA
TAFCLE
TAF AMD
KCLE 061031Z 0611/0712 02005KT 1/4SM FG OVC001
      TEMPO 0611/0613 1SM BR OVC003
     FM061300 05005KT 3SM BR OVC004
     FM061400 VRB04KT 5SM HZ BKN008 OVC045
     FM061700 01006KT P6SM BKN015 BKN200
     FM061900 01008KT P6SM SCT020
     FM070600 VRB03KT 4SM BR SCT250=

USA.gov is the U.S. government's official web portal to all federal, state and local government web resources and services.